sensor_id;sensor_type;location;lat;lon;timestamp;P1;durP1;ratioP1;P2;durP2;ratioP2
56927;SDS011;60850;52.502;13.426;2022-08-05T00:00:13;7.60;;;5.85;;
56927;SDS011;60850;52.502;13.426;2022-08-05T00:03:01;5.78;;;4.95;;
56927;SDS011;60850;52.502;13.426;2022-08-05T00:05:28;5.93;;;4.65;;
56927;SDS011;60850;52.502;13.426;2022-08-05T00:07:55;5.97;;;5.07;;
56927;SDS011;60850;52.502;13.426;2022-08-05T00:10:23;6.05;;;4.97;;
56927;SDS011;60850;52.502;13.426;2022-08-05T00:12:50;4.80;;;4.40;;
56927;SDS011;60850;52.502;13.426;2022-08-05T00:15:17;5.85;;;5.00;;
56927;SDS011;60850;52.502;13.426;2022-08-05T00:17:44;5.82;;;4.72;;
56927;SDS011;60850;52.502;13.426;2022-08-05T00:20:11;7.43;;;4.93;;
56927;SDS011;60850;52.502;13.426;2022-08-05T00:22:38;5.28;;;4.78;;
56927;SDS011;60850;52.502;13.426;2022-08-05T00:25:05;8.35;;;4.72;;
56927;SDS011;60850;52.502;13.426;2022-08-05T00:27:33;5.80;;;5.15;;
56927;SDS011;60850;52.502;13.426;2022-08-05T00:30:01;5.32;;;4.80;;
56927;SDS011;60850;52.502;13.426;2022-08-05T00:32:28;6.50;;;4.70;;
56927;SDS011;60850;52.502;13.426;2022-08-05T00:34:55;6.95;;;4.53;;
56927;SDS011;60850;52.502;13.426;2022-08-05T00:37:22;8.85;;;5.00;;
56927;SDS011;60850;52.502;13.426;2022-08-05T00:39:48;6.90;;;5.50;;
56927;SDS011;60850;52.502;13.426;2022-08-05T00:42:26;5.68;;;5.07;;
56927;SDS011;60850;52.502;13.426;2022-08-05T00:44:56;7.10;;;5.47;;
56927;SDS011;60850;52.502;13.426;2022-08-05T00:47:23;7.78;;;5.18;;
56927;SDS011;60850;52.502;13.426;2022-08-05T00:49:50;5.28;;;4.80;;
56927;SDS011;60850;52.502;13.426;2022-08-05T00:52:17;7.72;;;4.80;;
56927;SDS011;60850;52.502;13.426;2022-08-05T00:54:44;4.90;;;4.50;;
56927;SDS011;60850;52.502;13.426;2022-08-05T00:57:10;5.43;;;4.47;;
56927;SDS011;60850;52.502;13.426;2022-08-05T00:59:37;5.47;;;4.95;;
56927;SDS011;60850;52.502;13.426;2022-08-05T01:02:06;6.10;;;5.43;;
56927;SDS011;60850;52.502;13.426;2022-08-05T01:04:33;6.35;;;5.68;;
56927;SDS011;60850;52.502;13.426;2022-08-05T01:07:00;6.55;;;5.45;;
56927;SDS011;60850;52.502;13.426;2022-08-05T01:09:27;7.85;;;5.65;;
56927;SDS011;60850;52.502;13.426;2022-08-05T01:11:54;8.23;;;6.45;;
56927;SDS011;60850;52.502;13.426;2022-08-05T01:14:30;6.45;;;5.68;;
56927;SDS011;60850;52.502;13.426;2022-08-05T01:17:02;7.03;;;5.88;;
56927;SDS011;60850;52.502;13.426;2022-08-05T01:19:34;9.57;;;5.95;;
56927;SDS011;60850;52.502;13.426;2022-08-05T01:24:49;11.15;;;6.40;;
56927;SDS011;60850;52.502;13.426;2022-08-05T01:30:24;9.27;;;5.93;;
56927;SDS011;60850;52.502;13.426;2022-08-05T01:32:54;7.93;;;6.15;;
56927;SDS011;60850;52.502;13.426;2022-08-05T01:35:25;7.22;;;6.13;;
56927;SDS011;60850;52.502;13.426;2022-08-05T01:37:56;7.55;;;6.43;;
56927;SDS011;60850;52.502;13.426;2022-08-05T01:40:27;8.48;;;6.57;;
56927;SDS011;60850;52.502;13.426;2022-08-05T01:42:56;8.52;;;6.10;;
56927;SDS011;60850;52.502;13.426;2022-08-05T01:45:27;7.38;;;5.43;;
56927;SDS011;60850;52.502;13.426;2022-08-05T01:47:56;8.95;;;6.80;;
56927;SDS011;60850;52.502;13.426;2022-08-05T01:50:26;8.95;;;6.03;;
56927;SDS011;60850;52.502;13.426;2022-08-05T01:52:57;14.57;;;7.57;;
56927;SDS011;60850;52.502;13.426;2022-08-05T01:55:28;7.15;;;6.38;;
56927;SDS011;60850;52.502;13.426;2022-08-05T01:57:57;8.20;;;5.85;;
56927;SDS011;60850;52.502;13.426;2022-08-05T02:00:26;10.30;;;6.32;;
56927;SDS011;60850;52.502;13.426;2022-08-05T02:02:57;7.07;;;5.57;;
56927;SDS011;60850;52.502;13.426;2022-08-05T02:05:30;10.93;;;6.35;;
56927;SDS011;60850;52.502;13.426;2022-08-05T02:08:00;8.50;;;5.30;;
56927;SDS011;60850;52.502;13.426;2022-08-05T02:10:27;8.38;;;5.50;;
56927;SDS011;60850;52.502;13.426;2022-08-05T02:13:00;6.63;;;5.90;;
56927;SDS011;60850;52.502;13.426;2022-08-05T02:15:34;6.18;;;5.47;;
56927;SDS011;60850;52.502;13.426;2022-08-05T02:18:09;5.93;;;5.32;;
56927;SDS011;60850;52.502;13.426;2022-08-05T02:20:42;8.38;;;5.50;;
56927;SDS011;60850;52.502;13.426;2022-08-05T02:23:12;7.80;;;5.70;;
56927;SDS011;60850;52.502;13.426;2022-08-05T02:25:42;10.90;;;5.65;;
56927;SDS011;60850;52.502;13.426;2022-08-05T02:28:11;5.95;;;5.35;;
56927;SDS011;60850;52.502;13.426;2022-08-05T02:30:42;7.95;;;5.32;;
56927;SDS011;60850;52.502;13.426;2022-08-05T02:33:14;6.20;;;5.03;;
56927;SDS011;60850;52.502;13.426;2022-08-05T02:35:44;6.13;;;4.95;;
56927;SDS011;60850;52.502;13.426;2022-08-05T02:38:11;6.53;;;5.80;;
56927;SDS011;60850;52.502;13.426;2022-08-05T02:40:39;10.77;;;4.80;;
56927;SDS011;60850;52.502;13.426;2022-08-05T02:43:08;6.80;;;4.80;;
56927;SDS011;60850;52.502;13.426;2022-08-05T02:45:37;6.57;;;4.85;;
56927;SDS011;60850;52.502;13.426;2022-08-05T02:48:07;8.65;;;4.78;;
56927;SDS011;60850;52.502;13.426;2022-08-05T02:50:35;6.18;;;5.22;;
56927;SDS011;60850;52.502;13.426;2022-08-05T02:53:03;6.43;;;4.80;;
56927;SDS011;60850;52.502;13.426;2022-08-05T02:55:31;7.07;;;4.88;;
56927;SDS011;60850;52.502;13.426;2022-08-05T02:57:59;6.35;;;5.00;;
56927;SDS011;60850;52.502;13.426;2022-08-05T03:00:27;8.95;;;4.93;;
56927;SDS011;60850;52.502;13.426;2022-08-05T03:02:56;6.18;;;5.43;;
56927;SDS011;60850;52.502;13.426;2022-08-05T03:05:25;12.23;;;4.70;;
56927;SDS011;60850;52.502;13.426;2022-08-05T03:07:53;5.68;;;4.40;;
56927;SDS011;60850;52.502;13.426;2022-08-05T03:10:21;5.90;;;4.90;;
56927;SDS011;60850;52.502;13.426;2022-08-05T03:12:49;6.65;;;4.63;;
56927;SDS011;60850;52.502;13.426;2022-08-05T03:15:16;7.10;;;4.70;;
56927;SDS011;60850;52.502;13.426;2022-08-05T03:17:43;11.80;;;4.70;;
56927;SDS011;60850;52.502;13.426;2022-08-05T03:20:10;6.70;;;4.07;;
56927;SDS011;60850;52.502;13.426;2022-08-05T03:22:39;7.00;;;4.60;;
56927;SDS011;60850;52.502;13.426;2022-08-05T03:25:06;6.18;;;4.93;;
56927;SDS011;60850;52.502;13.426;2022-08-05T03:27:34;9.63;;;4.53;;
56927;SDS011;60850;52.502;13.426;2022-08-05T03:30:01;6.32;;;4.70;;
56927;SDS011;60850;52.502;13.426;2022-08-05T03:32:29;10.15;;;4.25;;
56927;SDS011;60850;52.502;13.426;2022-08-05T03:34:56;7.03;;;4.72;;
56927;SDS011;60850;52.502;13.426;2022-08-05T03:37:23;6.38;;;4.78;;
56927;SDS011;60850;52.502;13.426;2022-08-05T03:39:53;5.50;;;4.50;;
56927;SDS011;60850;52.502;13.426;2022-08-05T03:42:21;6.95;;;4.53;;
56927;SDS011;60850;52.502;13.426;2022-08-05T03:44:48;6.18;;;4.68;;
56927;SDS011;60850;52.502;13.426;2022-08-05T03:47:15;6.18;;;5.13;;
56927;SDS011;60850;52.502;13.426;2022-08-05T03:49:42;5.88;;;4.72;;
56927;SDS011;60850;52.502;13.426;2022-08-05T03:52:09;7.20;;;4.93;;
56927;SDS011;60850;52.502;13.426;2022-08-05T03:54:44;5.20;;;4.40;;
56927;SDS011;60850;52.502;13.426;2022-08-05T03:59:48;6.40;;;4.88;;
56927;SDS011;60850;52.502;13.426;2022-08-05T04:02:19;5.55;;;4.85;;
56927;SDS011;60850;52.502;13.426;2022-08-05T04:04:49;7.55;;;4.75;;
56927;SDS011;60850;52.502;13.426;2022-08-05T04:07:17;8.07;;;4.50;;
56927;SDS011;60850;52.502;13.426;2022-08-05T04:09:44;7.72;;;4.68;;
56927;SDS011;60850;52.502;13.426;2022-08-05T04:12:11;6.82;;;4.50;;
56927;SDS011;60850;52.502;13.426;2022-08-05T04:14:40;5.78;;;4.45;;
56927;SDS011;60850;52.502;13.426;2022-08-05T04:17:08;6.38;;;4.60;;
56927;SDS011;60850;52.502;13.426;2022-08-05T04:19:40;9.93;;;5.10;;
56927;SDS011;60850;52.502;13.426;2022-08-05T04:22:08;8.00;;;4.95;;
56927;SDS011;60850;52.502;13.426;2022-08-05T04:24:35;7.63;;;4.65;;
56927;SDS011;60850;52.502;13.426;2022-08-05T04:27:02;7.65;;;5.05;;
56927;SDS011;60850;52.502;13.426;2022-08-05T04:29:29;7.47;;;5.05;;
56927;SDS011;60850;52.502;13.426;2022-08-05T04:31:57;5.47;;;4.82;;
56927;SDS011;60850;52.502;13.426;2022-08-05T04:34:25;6.43;;;4.63;;
56927;SDS011;60850;52.502;13.426;2022-08-05T04:36:51;8.27;;;4.47;;
56927;SDS011;60850;52.502;13.426;2022-08-05T04:39:18;8.48;;;4.45;;
56927;SDS011;60850;52.502;13.426;2022-08-05T04:41:46;5.07;;;4.65;;
56927;SDS011;60850;52.502;13.426;2022-08-05T04:44:13;9.35;;;4.90;;
56927;SDS011;60850;52.502;13.426;2022-08-05T04:46:40;5.72;;;4.70;;
56927;SDS011;60850;52.502;13.426;2022-08-05T04:49:08;15.95;;;4.35;;
56927;SDS011;60850;52.502;13.426;2022-08-05T04:51:35;7.05;;;4.50;;
56927;SDS011;60850;52.502;13.426;2022-08-05T04:54:02;7.10;;;5.10;;
56927;SDS011;60850;52.502;13.426;2022-08-05T04:56:29;7.97;;;4.40;;
56927;SDS011;60850;52.502;13.426;2022-08-05T04:58:56;4.50;;;3.95;;
56927;SDS011;60850;52.502;13.426;2022-08-05T05:01:23;8.10;;;4.40;;
56927;SDS011;60850;52.502;13.426;2022-08-05T05:03:50;5.97;;;4.22;;
56927;SDS011;60850;52.502;13.426;2022-08-05T05:06:19;6.25;;;4.22;;
56927;SDS011;60850;52.502;13.426;2022-08-05T05:08:45;6.68;;;4.55;;
56927;SDS011;60850;52.502;13.426;2022-08-05T05:11:12;7.55;;;4.20;;
56927;SDS011;60850;52.502;13.426;2022-08-05T05:13:39;4.70;;;4.30;;
56927;SDS011;60850;52.502;13.426;2022-08-05T05:16:06;5.40;;;4.22;;
56927;SDS011;60850;52.502;13.426;2022-08-05T05:18:33;5.20;;;4.20;;
56927;SDS011;60850;52.502;13.426;2022-08-05T05:21:00;6.30;;;4.35;;
56927;SDS011;60850;52.502;13.426;2022-08-05T05:23:29;8.30;;;4.63;;
56927;SDS011;60850;52.502;13.426;2022-08-05T05:25:56;5.75;;;4.90;;
56927;SDS011;60850;52.502;13.426;2022-08-05T05:28:24;5.20;;;4.03;;
56927;SDS011;60850;52.502;13.426;2022-08-05T05:30:51;6.95;;;4.45;;
56927;SDS011;60850;52.502;13.426;2022-08-05T05:33:18;11.77;;;4.50;;
56927;SDS011;60850;52.502;13.426;2022-08-05T05:35:45;10.98;;;4.68;;
56927;SDS011;60850;52.502;13.426;2022-08-05T05:38:12;7.32;;;5.47;;
56927;SDS011;60850;52.502;13.426;2022-08-05T05:40:41;7.43;;;4.32;;
56927;SDS011;60850;52.502;13.426;2022-08-05T05:43:08;9.13;;;4.55;;
56927;SDS011;60850;52.502;13.426;2022-08-05T05:45:35;4.30;;;3.88;;
56927;SDS011;60850;52.502;13.426;2022-08-05T05:48:02;8.57;;;4.90;;
56927;SDS011;60850;52.502;13.426;2022-08-05T05:50:31;6.18;;;4.63;;
56927;SDS011;60850;52.502;13.426;2022-08-05T05:52:59;6.88;;;4.40;;
56927;SDS011;60850;52.502;13.426;2022-08-05T05:55:27;5.90;;;4.07;;
56927;SDS011;60850;52.502;13.426;2022-08-05T05:57:55;6.35;;;4.25;;
56927;SDS011;60850;52.502;13.426;2022-08-05T06:00:22;6.60;;;4.40;;
56927;SDS011;60850;52.502;13.426;2022-08-05T06:02:48;15.07;;;5.10;;
56927;SDS011;60850;52.502;13.426;2022-08-05T06:05:15;11.63;;;4.90;;
56927;SDS011;60850;52.502;13.426;2022-08-05T06:07:43;7.35;;;4.57;;
56927;SDS011;60850;52.502;13.426;2022-08-05T06:10:11;6.32;;;4.13;;
56927;SDS011;60850;52.502;13.426;2022-08-05T06:12:38;8.05;;;4.50;;
56927;SDS011;60850;52.502;13.426;2022-08-05T06:15:08;7.07;;;4.68;;
56927;SDS011;60850;52.502;13.426;2022-08-05T06:17:35;7.30;;;4.20;;
56927;SDS011;60850;52.502;13.426;2022-08-05T06:20:03;7.50;;;4.50;;
56927;SDS011;60850;52.502;13.426;2022-08-05T06:22:31;5.85;;;3.75;;
56927;SDS011;60850;52.502;13.426;2022-08-05T06:24:59;16.42;;;4.68;;
56927;SDS011;60850;52.502;13.426;2022-08-05T06:27:26;4.10;;;3.40;;
56927;SDS011;60850;52.502;13.426;2022-08-05T06:29:53;7.88;;;4.10;;
56927;SDS011;60850;52.502;13.426;2022-08-05T06:32:21;6.53;;;3.90;;
56927;SDS011;60850;52.502;13.426;2022-08-05T06:34:48;5.45;;;3.55;;
56927;SDS011;60850;52.502;13.426;2022-08-05T06:37:15;3.90;;;3.60;;
56927;SDS011;60850;52.502;13.426;2022-08-05T06:39:42;5.20;;;3.28;;
56927;SDS011;60850;52.502;13.426;2022-08-05T06:42:09;21.10;;;4.20;;
56927;SDS011;60850;52.502;13.426;2022-08-05T06:44:37;5.95;;;2.95;;
56927;SDS011;60850;52.502;13.426;2022-08-05T06:47:04;5.18;;;3.00;;
56927;SDS011;60850;52.502;13.426;2022-08-05T06:49:33;6.53;;;2.80;;
56927;SDS011;60850;52.502;13.426;2022-08-05T06:51:59;10.30;;;2.90;;
56927;SDS011;60850;52.502;13.426;2022-08-05T06:54:26;4.35;;;2.58;;
56927;SDS011;60850;52.502;13.426;2022-08-05T06:56:53;3.03;;;2.30;;
56927;SDS011;60850;52.502;13.426;2022-08-05T06:59:20;5.53;;;2.60;;
56927;SDS011;60850;52.502;13.426;2022-08-05T07:01:47;4.45;;;2.42;;
56927;SDS011;60850;52.502;13.426;2022-08-05T07:04:14;5.85;;;2.58;;
56927;SDS011;60850;52.502;13.426;2022-08-05T07:06:42;4.65;;;2.47;;
56927;SDS011;60850;52.502;13.426;2022-08-05T07:09:09;7.90;;;3.22;;
56927;SDS011;60850;52.502;13.426;2022-08-05T07:11:36;9.93;;;3.35;;
56927;SDS011;60850;52.502;13.426;2022-08-05T07:14:03;4.22;;;2.25;;
56927;SDS011;60850;52.502;13.426;2022-08-05T07:16:47;6.90;;;2.58;;
56927;SDS011;60850;52.502;13.426;2022-08-05T07:19:14;3.70;;;2.40;;
56927;SDS011;60850;52.502;13.426;2022-08-05T07:21:43;4.50;;;2.22;;
56927;SDS011;60850;52.502;13.426;2022-08-05T07:24:11;2.97;;;2.25;;
56927;SDS011;60850;52.502;13.426;2022-08-05T07:26:38;4.72;;;2.30;;
56927;SDS011;60850;52.502;13.426;2022-08-05T07:29:05;3.65;;;2.30;;
56927;SDS011;60850;52.502;13.426;2022-08-05T07:31:33;3.85;;;2.70;;
56927;SDS011;60850;52.502;13.426;2022-08-05T07:34:00;3.78;;;2.10;;
56927;SDS011;60850;52.502;13.426;2022-08-05T07:36:28;5.03;;;2.00;;
56927;SDS011;60850;52.502;13.426;2022-08-05T07:38:56;8.93;;;2.33;;
56927;SDS011;60850;52.502;13.426;2022-08-05T07:41:23;5.15;;;2.15;;
56927;SDS011;60850;52.502;13.426;2022-08-05T07:43:50;7.95;;;2.55;;
56927;SDS011;60850;52.502;13.426;2022-08-05T07:46:18;3.95;;;2.35;;
56927;SDS011;60850;52.502;13.426;2022-08-05T07:48:45;4.32;;;2.40;;
56927;SDS011;60850;52.502;13.426;2022-08-05T07:51:12;2.50;;;2.08;;
56927;SDS011;60850;52.502;13.426;2022-08-05T07:53:40;4.88;;;2.67;;
56927;SDS011;60850;52.502;13.426;2022-08-05T07:56:08;5.18;;;2.40;;
56927;SDS011;60850;52.502;13.426;2022-08-05T07:58:35;4.90;;;2.75;;
56927;SDS011;60850;52.502;13.426;2022-08-05T08:01:02;7.25;;;3.30;;
56927;SDS011;60850;52.502;13.426;2022-08-05T08:03:29;6.30;;;2.53;;
56927;SDS011;60850;52.502;13.426;2022-08-05T08:05:56;3.78;;;2.35;;
56927;SDS011;60850;52.502;13.426;2022-08-05T08:08:23;6.68;;;2.70;;
56927;SDS011;60850;52.502;13.426;2022-08-05T08:10:50;4.72;;;2.60;;
56927;SDS011;60850;52.502;13.426;2022-08-05T08:13:21;5.15;;;2.70;;
56927;SDS011;60850;52.502;13.426;2022-08-05T08:15:48;5.53;;;2.50;;
56927;SDS011;60850;52.502;13.426;2022-08-05T08:18:14;5.07;;;2.65;;
56927;SDS011;60850;52.502;13.426;2022-08-05T08:20:41;5.82;;;2.63;;
56927;SDS011;60850;52.502;13.426;2022-08-05T08:23:08;6.03;;;2.72;;
56927;SDS011;60850;52.502;13.426;2022-08-05T08:25:35;6.18;;;2.50;;
56927;SDS011;60850;52.502;13.426;2022-08-05T08:28:02;6.22;;;2.60;;
56927;SDS011;60850;52.502;13.426;2022-08-05T08:30:31;2.78;;;2.17;;
56927;SDS011;60850;52.502;13.426;2022-08-05T08:32:58;5.78;;;2.15;;
56927;SDS011;60850;52.502;13.426;2022-08-05T08:35:25;7.35;;;2.35;;
56927;SDS011;60850;52.502;13.426;2022-08-05T08:37:52;4.13;;;2.10;;
56927;SDS011;60850;52.502;13.426;2022-08-05T08:40:19;4.85;;;2.08;;
56927;SDS011;60850;52.502;13.426;2022-08-05T08:42:47;2.78;;;2.10;;
56927;SDS011;60850;52.502;13.426;2022-08-05T08:45:17;3.17;;;1.90;;
56927;SDS011;60850;52.502;13.426;2022-08-05T08:47:47;6.05;;;2.20;;
56927;SDS011;60850;52.502;13.426;2022-08-05T08:50:16;4.85;;;2.20;;
56927;SDS011;60850;52.502;13.426;2022-08-05T08:52:46;4.50;;;2.40;;
56927;SDS011;60850;52.502;13.426;2022-08-05T08:55:16;2.17;;;1.77;;
56927;SDS011;60850;52.502;13.426;2022-08-05T08:57:44;4.22;;;1.98;;
56927;SDS011;60850;52.502;13.426;2022-08-05T09:00:12;5.30;;;2.20;;
56927;SDS011;60850;52.502;13.426;2022-08-05T09:02:39;8.15;;;2.50;;
56927;SDS011;60850;52.502;13.426;2022-08-05T09:05:08;4.63;;;2.40;;
56927;SDS011;60850;52.502;13.426;2022-08-05T09:07:37;5.80;;;2.55;;
56927;SDS011;60850;52.502;13.426;2022-08-05T09:10:04;3.33;;;2.08;;
56927;SDS011;60850;52.502;13.426;2022-08-05T09:12:32;2.10;;;1.90;;
56927;SDS011;60850;52.502;13.426;2022-08-05T09:15:00;4.78;;;2.17;;
56927;SDS011;60850;52.502;13.426;2022-08-05T09:17:27;4.40;;;2.13;;
56927;SDS011;60850;52.502;13.426;2022-08-05T09:19:55;2.60;;;2.10;;
56927;SDS011;60850;52.502;13.426;2022-08-05T09:22:24;5.47;;;2.00;;
56927;SDS011;60850;52.502;13.426;2022-08-05T09:24:58;4.88;;;2.25;;
56927;SDS011;60850;52.502;13.426;2022-08-05T09:27:29;2.47;;;2.25;;
56927;SDS011;60850;52.502;13.426;2022-08-05T09:35:11;3.60;;;2.20;;
56927;SDS011;60850;52.502;13.426;2022-08-05T09:37:48;4.28;;;2.20;;
56927;SDS011;60850;52.502;13.426;2022-08-05T09:40:32;3.97;;;2.03;;
56927;SDS011;60850;52.502;13.426;2022-08-05T09:43:00;5.30;;;2.00;;
56927;SDS011;60850;52.502;13.426;2022-08-05T09:45:34;4.65;;;1.98;;
56927;SDS011;60850;52.502;13.426;2022-08-05T09:48:18;4.10;;;2.25;;
56927;SDS011;60850;52.502;13.426;2022-08-05T09:50:48;3.00;;;2.70;;
56927;SDS011;60850;52.502;13.426;2022-08-05T09:53:17;4.78;;;2.05;;
56927;SDS011;60850;52.502;13.426;2022-08-05T09:55:44;5.25;;;2.30;;
56927;SDS011;60850;52.502;13.426;2022-08-05T09:58:12;4.80;;;3.13;;
56927;SDS011;60850;52.502;13.426;2022-08-05T10:00:45;4.40;;;2.08;;
56927;SDS011;60850;52.502;13.426;2022-08-05T10:03:18;4.75;;;2.00;;
56927;SDS011;60850;52.502;13.426;2022-08-05T10:05:46;5.72;;;2.30;;
56927;SDS011;60850;52.502;13.426;2022-08-05T10:08:26;7.13;;;2.35;;
56927;SDS011;60850;52.502;13.426;2022-08-05T10:10:53;6.13;;;2.60;;
56927;SDS011;60850;52.502;13.426;2022-08-05T10:13:27;5.70;;;2.30;;
56927;SDS011;60850;52.502;13.426;2022-08-05T10:15:56;4.70;;;2.30;;
56927;SDS011;60850;52.502;13.426;2022-08-05T10:18:24;5.90;;;2.25;;
56927;SDS011;60850;52.502;13.426;2022-08-05T10:20:57;3.85;;;2.45;;
56927;SDS011;60850;52.502;13.426;2022-08-05T10:23:29;3.92;;;1.98;;
56927;SDS011;60850;52.502;13.426;2022-08-05T10:25:58;7.63;;;2.72;;
56927;SDS011;60850;52.502;13.426;2022-08-05T10:28:27;6.22;;;2.25;;
56927;SDS011;60850;52.502;13.426;2022-08-05T10:30:55;4.55;;;2.38;;
56927;SDS011;60850;52.502;13.426;2022-08-05T10:33:23;45.58;;;4.63;;
56927;SDS011;60850;52.502;13.426;2022-08-05T10:35:52;3.67;;;2.08;;
56927;SDS011;60850;52.502;13.426;2022-08-05T10:38:21;7.72;;;2.17;;
56927;SDS011;60850;52.502;13.426;2022-08-05T10:41:04;9.05;;;2.75;;
56927;SDS011;60850;52.502;13.426;2022-08-05T10:43:42;5.95;;;2.15;;
56927;SDS011;60850;52.502;13.426;2022-08-05T10:46:16;7.53;;;2.08;;
56927;SDS011;60850;52.502;13.426;2022-08-05T10:48:47;5.20;;;2.38;;
56927;SDS011;60850;52.502;13.426;2022-08-05T10:51:15;3.22;;;2.20;;
56927;SDS011;60850;52.502;13.426;2022-08-05T10:53:47;4.57;;;2.80;;
56927;SDS011;60850;52.502;13.426;2022-08-05T10:56:21;3.10;;;2.20;;
56927;SDS011;60850;52.502;13.426;2022-08-05T10:59:00;3.20;;;2.50;;
56927;SDS011;60850;52.502;13.426;2022-08-05T11:01:30;5.63;;;3.25;;
56927;SDS011;60850;52.502;13.426;2022-08-05T11:04:04;6.20;;;2.33;;
56927;SDS011;60850;52.502;13.426;2022-08-05T11:06:34;3.58;;;2.50;;
56927;SDS011;60850;52.502;13.426;2022-08-05T11:09:22;5.60;;;2.78;;
56927;SDS011;60850;52.502;13.426;2022-08-05T11:11:52;6.15;;;2.60;;
56927;SDS011;60850;52.502;13.426;2022-08-05T11:14:25;4.88;;;2.20;;
56927;SDS011;60850;52.502;13.426;2022-08-05T11:19:54;3.00;;;2.40;;
56927;SDS011;60850;52.502;13.426;2022-08-05T11:22:39;3.53;;;2.35;;
56927;SDS011;60850;52.502;13.426;2022-08-05T11:31:23;3.00;;;2.20;;
56927;SDS011;60850;52.502;13.426;2022-08-05T11:33:56;3.85;;;1.90;;
56927;SDS011;60850;52.502;13.426;2022-08-05T11:36:39;3.17;;;1.63;;
56927;SDS011;60850;52.502;13.426;2022-08-05T11:39:16;1.90;;;1.52;;
56927;SDS011;60850;52.502;13.426;2022-08-05T11:41:58;2.17;;;1.57;;
56927;SDS011;60850;52.502;13.426;2022-08-05T11:44:34;2.58;;;1.98;;
56927;SDS011;60850;52.502;13.426;2022-08-05T11:47:02;2.33;;;1.90;;
56927;SDS011;60850;52.502;13.426;2022-08-05T11:49:29;3.53;;;2.30;;
56927;SDS011;60850;52.502;13.426;2022-08-05T11:51:56;3.83;;;2.22;;
56927;SDS011;60850;52.502;13.426;2022-08-05T11:54:23;4.93;;;2.53;;
56927;SDS011;60850;52.502;13.426;2022-08-05T11:56:53;4.03;;;2.22;;
56927;SDS011;60850;52.502;13.426;2022-08-05T11:59:22;3.45;;;2.20;;
56927;SDS011;60850;52.502;13.426;2022-08-05T12:01:53;3.53;;;2.40;;
56927;SDS011;60850;52.502;13.426;2022-08-05T12:04:22;2.95;;;2.40;;
56927;SDS011;60850;52.502;13.426;2022-08-05T12:06:50;3.58;;;2.50;;
56927;SDS011;60850;52.502;13.426;2022-08-05T12:09:20;6.13;;;2.20;;
56927;SDS011;60850;52.502;13.426;2022-08-05T12:11:49;5.35;;;2.30;;
56927;SDS011;60850;52.502;13.426;2022-08-05T12:14:16;5.15;;;2.42;;
56927;SDS011;60850;52.502;13.426;2022-08-05T12:16:43;6.38;;;2.33;;
56927;SDS011;60850;52.502;13.426;2022-08-05T12:19:14;4.00;;;2.60;;
56927;SDS011;60850;52.502;13.426;2022-08-05T12:21:47;3.42;;;2.15;;
56927;SDS011;60850;52.502;13.426;2022-08-05T12:24:16;2.40;;;2.20;;
56927;SDS011;60850;52.502;13.426;2022-08-05T12:26:44;5.32;;;2.50;;
56927;SDS011;60850;52.502;13.426;2022-08-05T12:29:13;9.15;;;2.53;;
56927;SDS011;60850;52.502;13.426;2022-08-05T12:31:45;6.25;;;2.35;;
56927;SDS011;60850;52.502;13.426;2022-08-05T12:34:16;5.47;;;2.38;;
56927;SDS011;60850;52.502;13.426;2022-08-05T12:39:16;5.95;;;2.60;;
56927;SDS011;60850;52.502;13.426;2022-08-05T12:41:43;2.00;;;1.88;;
56927;SDS011;60850;52.502;13.426;2022-08-05T12:44:12;2.50;;;2.30;;
56927;SDS011;60850;52.502;13.426;2022-08-05T12:46:50;4.07;;;2.45;;
56927;SDS011;60850;52.502;13.426;2022-08-05T12:49:20;3.95;;;2.70;;
56927;SDS011;60850;52.502;13.426;2022-08-05T12:51:47;3.35;;;2.55;;
56927;SDS011;60850;52.502;13.426;2022-08-05T12:54:19;3.42;;;2.72;;
56927;SDS011;60850;52.502;13.426;2022-08-05T12:56:48;6.65;;;3.20;;
56927;SDS011;60850;52.502;13.426;2022-08-05T12:59:17;2.85;;;2.50;;
56927;SDS011;60850;52.502;13.426;2022-08-05T13:01:52;2.78;;;2.30;;
56927;SDS011;60850;52.502;13.426;2022-08-05T13:04:24;5.93;;;2.78;;
56927;SDS011;60850;52.502;13.426;2022-08-05T13:06:54;2.80;;;2.50;;
56927;SDS011;60850;52.502;13.426;2022-08-05T13:09:22;4.38;;;2.65;;
56927;SDS011;60850;52.502;13.426;2022-08-05T13:11:50;3.53;;;2.45;;
56927;SDS011;60850;52.502;13.426;2022-08-05T13:14:17;3.50;;;2.22;;
56927;SDS011;60850;52.502;13.426;2022-08-05T13:16:47;4.28;;;2.78;;
56927;SDS011;60850;52.502;13.426;2022-08-05T13:19:14;3.47;;;2.53;;
56927;SDS011;60850;52.502;13.426;2022-08-05T13:21:45;3.55;;;2.08;;
56927;SDS011;60850;52.502;13.426;2022-08-05T13:24:13;3.60;;;2.60;;
56927;SDS011;60850;52.502;13.426;2022-08-05T13:26:41;4.07;;;2.92;;
56927;SDS011;60850;52.502;13.426;2022-08-05T13:29:08;4.38;;;2.60;;
56927;SDS011;60850;52.502;13.426;2022-08-05T13:31:35;7.10;;;2.53;;
56927;SDS011;60850;52.502;13.426;2022-08-05T13:34:02;3.42;;;2.40;;
56927;SDS011;60850;52.502;13.426;2022-08-05T13:36:29;4.18;;;2.38;;
56927;SDS011;60850;52.502;13.426;2022-08-05T13:38:59;3.50;;;2.20;;
56927;SDS011;60850;52.502;13.426;2022-08-05T13:41:25;5.97;;;2.33;;
56927;SDS011;60850;52.502;13.426;2022-08-05T13:43:52;2.83;;;2.30;;
56927;SDS011;60850;52.502;13.426;2022-08-05T13:46:20;2.80;;;1.95;;
56927;SDS011;60850;52.502;13.426;2022-08-05T13:48:47;5.40;;;2.25;;
56927;SDS011;60850;52.502;13.426;2022-08-05T13:51:14;3.85;;;2.00;;
56927;SDS011;60850;52.502;13.426;2022-08-05T13:53:41;4.05;;;2.20;;
56927;SDS011;60850;52.502;13.426;2022-08-05T13:56:10;6.95;;;2.55;;
56927;SDS011;60850;52.502;13.426;2022-08-05T13:58:36;3.85;;;2.30;;
56927;SDS011;60850;52.502;13.426;2022-08-05T14:01:03;4.72;;;2.25;;
56927;SDS011;60850;52.502;13.426;2022-08-05T14:03:31;2.65;;;2.10;;
56927;SDS011;60850;52.502;13.426;2022-08-05T14:05:59;5.50;;;2.20;;
56927;SDS011;60850;52.502;13.426;2022-08-05T14:08:25;2.92;;;2.40;;
56927;SDS011;60850;52.502;13.426;2022-08-05T14:10:52;3.47;;;2.80;;
56927;SDS011;60850;52.502;13.426;2022-08-05T14:13:20;2.95;;;2.28;;
56927;SDS011;60850;52.502;13.426;2022-08-05T14:15:49;7.25;;;2.67;;
56927;SDS011;60850;52.502;13.426;2022-08-05T14:18:16;3.17;;;2.60;;
56927;SDS011;60850;52.502;13.426;2022-08-05T14:20:43;3.08;;;2.70;;
56927;SDS011;60850;52.502;13.426;2022-08-05T14:23:10;2.97;;;2.45;;
56927;SDS011;60850;52.502;13.426;2022-08-05T14:25:37;3.10;;;2.28;;
56927;SDS011;60850;52.502;13.426;2022-08-05T14:28:04;4.05;;;2.67;;
56927;SDS011;60850;52.502;13.426;2022-08-05T14:30:32;3.17;;;2.42;;
56927;SDS011;60850;52.502;13.426;2022-08-05T14:32:59;4.97;;;2.97;;
56927;SDS011;60850;52.502;13.426;2022-08-05T14:35:26;3.15;;;2.60;;
56927;SDS011;60850;52.502;13.426;2022-08-05T14:37:53;3.15;;;2.83;;
56927;SDS011;60850;52.502;13.426;2022-08-05T14:40:20;7.72;;;2.60;;
56927;SDS011;60850;52.502;13.426;2022-08-05T14:42:46;3.42;;;2.65;;
56927;SDS011;60850;52.502;13.426;2022-08-05T14:45:13;4.68;;;2.78;;
56927;SDS011;60850;52.502;13.426;2022-08-05T14:47:42;4.07;;;3.20;;
56927;SDS011;60850;52.502;13.426;2022-08-05T14:50:08;4.55;;;2.92;;
56927;SDS011;60850;52.502;13.426;2022-08-05T14:52:35;5.70;;;2.60;;
56927;SDS011;60850;52.502;13.426;2022-08-05T14:55:02;4.45;;;2.60;;
56927;SDS011;60850;52.502;13.426;2022-08-05T14:57:30;4.10;;;2.83;;
56927;SDS011;60850;52.502;13.426;2022-08-05T14:59:58;3.08;;;2.70;;
56927;SDS011;60850;52.502;13.426;2022-08-05T15:02:25;4.15;;;3.05;;
56927;SDS011;60850;52.502;13.426;2022-08-05T15:04:53;4.22;;;3.28;;
56927;SDS011;60850;52.502;13.426;2022-08-05T15:07:20;3.40;;;2.60;;